Time;durP1;ratioP1;P1;durP2;ratioP2;P2;SDS_P1;SDS_P2;PMS_P1;PMS_P2;Temp;Humidity;BMP_temperature;BMP_pressure;BME280_temperature;BME280_humidity;BME280_pressure;Samples;Min_cycle;Max_cycle;Signal;HPM_P1;HPM_P2
2023/11/03 00:00:28;;;;;;;28.67;17.48;;;;;;;8.36;88.01;93914.88;5072402;28;20034;-77
2023/11/03 00:02:57;;;;;;;27.98;17.38;;;;;;;8.47;87.44;93913.03;5072539;28;20039;-76
2023/11/03 00:05:23;;;;;;;27.33;18.20;;;;;;;8.47;87.71;93917.38;5106313;28;20046;-76
2023/11/03 00:07:48;;;;;;;32.15;19.20;;;;;;;8.59;86.31;93897.34;5086914;28;20594;-76
2023/11/03 00:10:15;;;;;;;31.45;18.35;;;;;;;8.67;86.09;93898.28;5106400;28;20062;-75
2023/11/03 00:12:40;;;;;;;27.55;17.75;;;;;;;8.50;86.69;93865.34;5107217;28;20031;-76
2023/11/03 00:15:06;;;;;;;29.17;18.05;;;;;;;8.75;85.45;93889.00;5089728;28;20054;-76
2023/11/03 00:17:31;;;;;;;26.40;18.35;;;;;;;8.86;85.98;93897.47;5086948;28;20329;-76
2023/11/03 00:19:57;;;;;;;25.83;17.65;;;;;;;8.70;85.76;93874.72;5107472;28;20031;-76
2023/11/03 00:22:24;;;;;;;27.17;17.83;;;;;;;8.72;85.38;93882.34;5071911;28;20031;-76
2023/11/03 00:24:49;;;;;;;26.30;17.25;;;;;;;8.61;85.81;93892.81;5106192;28;20040;-77
2023/11/03 00:27:15;;;;;;;26.88;16.85;;;;;;;8.91;83.23;93871.97;5102997;28;20067;-75
2023/11/03 00:29:41;;;;;;;26.05;17.52;;;;;;;8.87;83.75;93886.13;5072384;28;20035;-76
2023/11/03 00:32:06;;;;;;;23.38;15.57;;;;;;;8.83;83.22;93866.66;5106640;28;20038;-75
2023/11/03 00:34:32;;;;;;;24.08;15.90;;;;;;;8.85;81.59;93869.09;5089148;28;20500;-76
2023/11/03 00:36:57;;;;;;;24.85;15.23;;;;;;;8.82;81.83;93877.94;5105237;28;20032;-76
2023/11/03 00:39:23;;;;;;;22.52;15.98;;;;;;;8.64;83.30;93888.22;5104798;28;20028;-76
2023/11/03 00:41:49;;;;;;;24.17;15.00;;;;;;;8.65;82.62;93894.19;5105679;28;20024;-76
2023/11/03 00:44:15;;;;;;;25.02;15.27;;;;;;;8.55;83.51;93903.72;5089573;28;20085;-76
2023/11/03 00:46:42;;;;;;;25.30;15.30;;;;;;;8.46;84.05;93889.84;5072279;28;20055;-75
2023/11/03 00:49:12;;;;;;;23.75;15.63;;;;;;;8.49;83.65;93881.81;5086052;28;20024;-76
2023/11/03 00:51:37;;;;;;;21.73;15.95;;;;;;;8.43;84.36;93909.06;5105407;28;20134;-76
2023/11/03 00:54:03;;;;;;;27.80;16.40;;;;;;;8.64;83.15;93887.41;5107818;28;20557;-76
2023/11/03 00:56:29;;;;;;;25.05;16.08;;;;;;;8.60;83.88;93873.06;5109753;28;20047;-75
2023/11/03 00:58:54;;;;;;;30.08;18.30;;;;;;;8.43;86.46;93867.63;5105155;28;20386;-76
2023/11/03 01:01:19;;;;;;;27.98;17.30;;;;;;;8.37;86.03;93869.94;5111110;28;20036;-76
2023/11/03 01:03:46;;;;;;;26.25;16.40;;;;;;;8.46;85.77;93888.06;5092516;28;20531;-76
2023/11/03 01:06:11;;;;;;;26.73;15.15;;;;;;;8.46;84.93;93890.66;5092721;28;20081;-76
2023/11/03 01:08:37;;;;;;;22.10;14.38;;;;;;;8.76;82.51;93903.59;5106698;28;20035;-76
2023/11/03 01:11:03;;;;;;;32.30;20.98;;;;;;;8.52;83.54;93899.66;5076356;28;20247;-76
2023/11/03 01:13:29;;;;;;;23.73;15.60;;;;;;;8.59;83.55;93892.97;5110228;28;20031;-76
2023/11/03 01:15:54;;;;;;;23.20;15.60;;;;;;;8.39;83.77;93902.53;5109759;28;20027;-76
2023/11/03 01:18:19;;;;;;;24.67;15.73;;;;;;;8.49;83.13;93889.56;5104967;28;20040;-76
2023/11/03 01:20:48;;;;;;;30.27;17.27;;;;;;;8.35;83.51;93893.34;5076009;28;20027;-76
2023/11/03 01:23:14;;;;;;;25.25;16.00;;;;;;;8.61;82.96;93921.31;5079595;28;20035;-76
2023/11/03 01:25:40;;;;;;;28.80;17.40;;;;;;;8.68;82.40;93923.22;5096146;28;20055;-76
2023/11/03 01:28:06;;;;;;;26.90;16.48;;;;;;;8.56;82.95;93923.50;5114358;28;20408;-76
2023/11/03 01:30:31;;;;;;;27.98;17.48;;;;;;;8.58;84.26;93935.38;5112822;28;20386;-77
2023/11/03 01:32:57;;;;;;;25.70;16.80;;;;;;;8.75;83.11;93939.03;5114250;28;20059;-76
2023/11/03 01:35:25;;;;;;;25.83;16.90;;;;;;;8.51;83.58;93931.66;5113115;28;20084;-76
2023/11/03 01:37:53;;;;;;;31.17;19.42;;;;;;;8.18;84.78;93910.34;5112923;28;20032;-76
2023/11/03 01:40:18;;;;;;;30.83;18.85;;;;;;;8.66;84.12;93930.31;5075648;28;20497;-76
2023/11/03 01:42:44;;;;;;;28.30;17.70;;;;;;;8.54;83.39;93912.47;5075490;28;20054;-76
2023/11/03 01:45:10;;;;;;;29.55;18.25;;;;;;;8.31;85.80;93919.66;5093879;28;20122;-76
2023/11/03 01:47:36;;;;;;;31.58;18.80;;;;;;;8.40;86.14;93918.88;5075009;28;20058;-76
2023/11/03 01:50:01;;;;;;;26.55;17.75;;;;;;;8.25;85.48;93921.00;5092125;28;20482;-76
2023/11/03 01:52:27;;;;;;;29.75;18.67;;;;;;;8.26;85.30;93928.63;5075399;28;20090;-76
2023/11/03 01:54:52;;;;;;;33.90;20.08;;;;;;;8.28;86.55;93928.50;5092235;28;20024;-75
2023/11/03 01:57:18;;;;;;;29.17;18.45;;;;;;;8.29;85.32;93925.75;5092153;28;20032;-76
2023/11/03 01:59:44;;;;;;;28.80;16.98;;;;;;;8.36;84.63;93932.97;5092100;28;20036;-76
2023/11/03 02:02:09;;;;;;;30.13;18.00;;;;;;;8.17;86.36;93910.50;5093316;28;20067;-75
2023/11/03 02:04:35;;;;;;;34.00;19.13;;;;;;;8.18;85.01;93904.38;5093275;28;20032;-76
2023/11/03 02:07:00;;;;;;;29.38;18.80;;;;;;;8.20;85.99;93908.47;5075108;28;20073;-76
2023/11/03 02:09:26;;;;;;;28.13;18.27;;;;;;;8.36;83.99;93900.19;5058332;28;20040;-76
2023/11/03 02:11:51;;;;;;;33.15;18.95;;;;;;;8.23;84.43;93915.97;5091942;28;20024;-77
2023/11/03 02:14:17;;;;;;;29.98;18.58;;;;;;;8.38;84.51;93895.66;5074893;28;20375;-76
2023/11/03 02:16:43;;;;;;;29.05;18.52;;;;;;;8.16;84.76;93875.22;5091822;28;20028;-75
2023/11/03 02:19:10;;;;;;;29.85;18.42;;;;;;;8.35;85.15;93851.94;5074856;28;20044;-76
2023/11/03 02:21:38;;;;;;;29.30;17.88;;;;;;;8.20;85.51;93861.09;5075070;28;20028;-75
2023/11/03 02:24:05;;;;;;;27.10;17.95;;;;;;;8.38;85.07;93877.53;5074714;28;20042;-76
2023/11/03 02:26:30;;;;;;;29.58;19.00;;;;;;;8.54;84.11;93873.63;5091691;28;20403;-76
2023/11/03 02:28:56;;;;;;;30.92;18.60;;;;;;;8.36;83.14;93837.22;5074465;28;20031;-76
2023/11/03 02:31:21;;;;;;;31.05;17.58;;;;;;;8.49;83.71;93851.56;5091471;28;20031;-76
2023/11/03 02:33:47;;;;;;;28.83;17.92;;;;;;;8.47;84.65;93852.69;5091481;28;20027;-76
2023/11/03 02:36:13;;;;;;;28.88;17.45;;;;;;;8.52;84.52;93828.94;5093132;28;20055;-77
2023/11/03 02:38:38;;;;;;;28.90;17.98;;;;;;;8.67;85.01;93843.09;5092547;28;20032;-76
2023/11/03 02:41:04;;;;;;;29.52;17.77;;;;;;;8.64;83.95;93822.69;5076356;28;20039;-76
2023/11/03 02:43:30;;;;;;;27.15;17.13;;;;;;;8.48;83.82;93834.41;5094499;28;20063;-76
2023/11/03 02:45:55;;;;;;;26.27;16.63;;;;;;;8.68;83.30;93842.13;5113291;28;20069;-76
2023/11/03 02:48:22;;;;;;;26.33;16.08;;;;;;;8.46;83.96;93851.03;5111496;28;20039;-76
2023/11/03 02:50:47;;;;;;;28.25;17.67;;;;;;;8.22;84.74;93841.88;5113184;28;20115;-76
2023/11/03 02:53:12;;;;;;;29.42;17.25;;;;;;;8.25;84.64;93853.72;5111388;28;20044;-76
2023/11/03 02:55:38;;;;;;;25.85;16.65;;;;;;;8.52;83.78;93858.22;5111612;28;20023;-75
2023/11/03 02:58:04;;;;;;;30.38;17.58;;;;;;;8.58;84.08;93865.47;5111313;28;20039;-76
2023/11/03 03:00:29;;;;;;;27.15;17.25;;;;;;;8.30;84.27;93861.88;5112872;28;20028;-76
2023/11/03 03:02:56;;;;;;;25.02;17.60;;;;;;;8.38;83.74;93864.59;5094365;28;20040;-76
2023/11/03 03:05:22;;;;;;;28.05;17.77;;;;;;;8.35;84.53;93864.06;5094433;28;20477;-75
2023/11/03 03:07:47;;;;;;;28.40;17.95;;;;;;;8.47;84.35;93866.44;5111165;28;20031;-76
2023/11/03 03:10:13;;;;;;;27.60;18.20;;;;;;;8.22;84.91;93859.19;5112650;28;20034;-76
2023/11/03 03:12:38;;;;;;;25.38;17.05;;;;;;;8.39;84.77;93863.69;5094143;28;20034;-76
2023/11/03 03:15:04;;;;;;;32.75;18.42;;;;;;;8.40;86.14;93861.94;5111167;28;20035;-76
2023/11/03 03:17:30;;;;;;;29.45;17.88;;;;;;;8.18;86.59;93870.75;5110522;28;20740;-76
2023/11/03 03:19:55;;;;;;;28.30;17.85;;;;;;;8.54;85.24;93858.09;5093912;28;20028;-76
2023/11/03 03:22:21;;;;;;;29.83;17.60;;;;;;;8.30;86.02;93851.53;5110765;28;20111;-76
2023/11/03 03:24:46;;;;;;;31.50;18.38;;;;;;;8.15;87.90;93858.09;5112312;28;20063;-76
2023/11/03 03:27:12;;;;;;;27.35;17.10;;;;;;;8.33;86.46;93864.22;5110823;28;20028;-76
2023/11/03 03:29:37;;;;;;;25.20;16.77;;;;;;;8.21;86.24;93829.06;5110752;28;20032;-76
2023/11/03 03:32:03;;;;;;;27.30;16.58;;;;;;;8.33;86.85;93846.09;5110703;28;20030;-76
2023/11/03 03:34:29;;;;;;;30.52;18.75;;;;;;;8.37;87.08;93839.69;5111797;28;20031;-76
2023/11/03 03:36:54;;;;;;;26.98;16.98;;;;;;;8.35;87.05;93843.38;5110681;28;20054;-76
2023/11/03 03:39:20;;;;;;;31.00;17.35;;;;;;;8.61;85.11;93836.72;5111618;28;20388;-76
2023/11/03 03:41:50;;;;;;;28.38;17.58;;;;;;;8.71;84.47;93828.91;5093614;28;20117;-76
2023/11/03 03:44:15;;;;;;;28.67;17.27;;;;;;;8.64;85.23;93846.78;5110592;28;20054;-77
2023/11/03 03:46:41;;;;;;;32.22;17.90;;;;;;;8.51;85.74;93859.19;5127610;27;20027;-77
2023/11/03 03:49:06;;;;;;;27.60;16.02;;;;;;;8.83;84.25;93869.25;5110396;28;20455;-77
2023/11/03 03:51:31;;;;;;;27.25;16.55;;;;;;;8.86;83.88;93852.59;5111625;28;20047;-77
2023/11/03 03:53:57;;;;;;;32.72;19.13;;;;;;;8.79;84.62;93831.63;5127225;27;20015;-77
2023/11/03 03:56:25;;;;;;;30.45;18.23;;;;;;;8.88;84.46;93832.56;5127447;27;20032;-77
2023/11/03 03:58:52;;;;;;;27.88;18.25;;;;;;;8.85;84.84;93843.19;5110275;28;20028;-77
2023/11/03 04:01:17;;;;;;;28.90;17.65;;;;;;;8.72;84.85;93822.78;5110485;28;20519;-76
2023/11/03 04:03:43;;;;;;;29.13;17.08;;;;;;;8.79;85.14;93808.31;5111387;28;20036;-77
2023/11/03 04:06:11;;;;;;;28.45;17.52;;;;;;;8.50;85.22;93760.03;5144473;27;20077;-77
2023/11/03 04:08:37;;;;;;;37.05;18.48;;;;;;;8.62;85.64;93793.50;5110427;28;20032;-78
2023/11/03 04:11:03;;;;;;;29.75;18.00;;;;;;;8.40;86.06;93792.88;5144343;27;20051;-77
2023/11/03 04:13:29;;;;;;;27.33;16.52;;;;;;;8.66;84.46;93787.09;5127152;27;20024;-77
2023/11/03 04:15:54;;;;;;;28.10;16.33;;;;;;;8.53;84.31;93784.00;5111792;28;20080;-78
2023/11/03 04:18:20;;;;;;;27.15;17.98;;;;;;;8.43;84.97;93810.69;5144346;27;20035;-78
2023/11/03 04:20:46;;;;;;;28.67;17.90;;;;;;;8.52;84.58;93780.56;5110122;28;20167;-77
2023/11/03 04:23:12;;;;;;;27.05;16.38;;;;;;;8.65;84.47;93775.09;5109242;28;20106;-77
2023/11/03 04:25:38;;;;;;;33.15;17.52;;;;;;;8.28;85.25;93774.06;5110003;28;20038;-76
2023/11/03 04:28:07;;;;;;;28.35;15.52;;;;;;;8.60;84.51;93774.69;5102827;28;20028;-76
2023/11/03 04:30:34;;;;;;;30.40;16.90;;;;;;;8.49;84.39;93755.78;5095458;28;20032;-76
2023/11/03 04:33:00;;;;;;;29.73;17.05;;;;;;;8.47;84.81;93744.78;5093796;28;20039;-76
2023/11/03 04:35:25;;;;;;;32.40;18.33;;;;;;;8.44;85.40;93754.56;5093704;28;20063;-77
2023/11/03 04:37:51;;;;;;;29.48;17.13;;;;;;;8.66;83.51;93766.38;5127757;27;20039;-77
2023/11/03 04:40:19;;;;;;;29.15;17.15;;;;;;;8.56;84.33;93786.31;5131409;27;20050;-77
2023/11/03 04:42:44;;;;;;;29.95;17.52;;;;;;;8.53;83.26;93781.41;5108638;28;20028;-76
2023/11/03 04:45:10;;;;;;;29.17;16.58;;;;;;;8.72;83.59;93805.47;5094067;28;20500;-76
2023/11/03 04:47:35;;;;;;;32.80;17.00;;;;;;;8.60;84.46;93811.75;5092279;28;20031;-76
2023/11/03 04:50:01;;;;;;;26.33;17.23;;;;;;;8.65;84.69;93808.75;5110572;28;20038;-77
2023/11/03 04:52:26;;;;;;;31.77;17.48;;;;;;;8.57;85.44;93808.63;5109846;28;20047;-75
2023/11/03 04:54:51;;;;;;;26.65;16.35;;;;;;;8.62;85.96;93803.88;5109152;28;20020;-77
2023/11/03 04:57:18;;;;;;;33.53;20.40;;;;;;;8.69;86.05;93815.28;5090660;28;20425;-76
2023/11/03 04:59:45;;;;;;;27.48;17.05;;;;;;;8.71;85.53;93803.03;5110380;28;20027;-76
2023/11/03 05:02:10;;;;;;;71.88;36.72;;;;;;;8.94;85.62;93809.50;5092071;28;20040;-76
2023/11/03 05:04:36;;;;;;;58.08;29.38;;;;;;;8.93;86.27;93802.69;5111234;28;20408;-76
2023/11/03 05:07:01;;;;;;;77.07;36.17;;;;;;;9.01;85.28;93804.56;5109091;28;20520;-76
2023/11/03 05:09:27;;;;;;;87.63;46.03;;;;;;;9.09;84.88;93790.91;5110699;28;20032;-76
2023/11/03 05:11:52;;;;;;;73.35;41.58;;;;;;;9.16;85.55;93781.59;5092298;28;20031;-76
2023/11/03 05:14:18;;;;;;;96.22;51.33;;;;;;;8.98;85.95;93776.38;5110909;28;20059;-77
2023/11/03 05:16:43;;;;;;;118.85;60.15;;;;;;;9.12;85.05;93762.94;5090931;28;20027;-76
2023/11/03 05:19:09;;;;;;;83.43;49.53;;;;;;;8.91;84.57;93739.03;5075503;28;20553;-76
2023/11/03 05:21:35;;;;;;;58.55;34.45;;;;;;;8.78;85.08;93723.81;5109214;28;20040;-76
2023/11/03 05:24:02;;;;;;;53.70;31.60;;;;;;;8.91;85.47;93742.44;5092223;28;20024;-76
2023/11/03 05:26:27;;;;;;;38.83;25.80;;;;;;;9.21;84.16;93731.94;5074028;28;20047;-76
2023/11/03 05:28:54;;;;;;;40.10;24.40;;;;;;;9.09;85.25;93731.31;5092725;28;20028;-76
2023/11/03 05:31:19;;;;;;;26.67;15.75;;;;;;;9.24;85.48;93734.22;5108355;28;20059;-76
2023/11/03 05:33:45;;;;;;;25.00;15.93;;;;;;;9.33;86.07;93746.31;5074876;28;20485;-76
2023/11/03 05:36:11;;;;;;;27.65;15.93;;;;;;;9.43;85.10;93747.09;5087378;28;20478;-76
2023/11/03 05:38:37;;;;;;;21.60;14.43;;;;;;;9.42;85.62;93724.72;5107270;28;20413;-76
2023/11/03 05:41:03;;;;;;;24.00;15.20;;;;;;;9.37;85.70;93701.81;5109262;28;20024;-76
2023/11/03 05:43:30;;;;;;;26.00;15.02;;;;;;;9.37;85.90;93721.75;5110311;28;20060;-76
2023/11/03 05:45:55;;;;;;;22.63;14.60;;;;;;;9.56;85.22;93720.81;5107922;28;20028;-75
2023/11/03 05:48:21;;;;;;;22.45;13.07;;;;;;;9.75;84.57;93712.06;5109603;28;20414;-76
2023/11/03 05:50:46;;;;;;;20.90;15.57;;;;;;;9.73;84.53;93714.81;5075157;28;20027;-76
2023/11/03 05:53:12;;;;;;;24.25;16.45;;;;;;;9.75;84.88;93730.19;5109589;28;20433;-76
2023/11/03 05:55:37;;;;;;;19.38;12.98;;;;;;;9.85;84.13;93721.38;5108969;28;20034;-76
2023/11/03 05:58:04;;;;;;;21.67;12.80;;;;;;;9.76;84.44;93698.94;5093677;28;20028;-75
2023/11/03 06:00:30;;;;;;;30.40;18.73;;;;;;;9.80;85.31;93718.41;5111891;28;20106;-76
2023/11/03 06:02:55;;;;;;;20.42;12.95;;;;;;;9.71;85.67;93697.75;5113188;28;20038;-75
2023/11/03 06:05:21;;;;;;;19.85;12.77;;;;;;;9.99;84.86;93707.06;5112347;28;20035;-76
2023/11/03 06:07:48;;;;;;;21.13;12.13;;;;;;;10.10;84.24;93708.63;5112430;28;20042;-76
2023/11/03 06:10:14;;;;;;;23.40;12.90;;;;;;;9.92;85.08;93697.44;5093812;28;20043;-76
2023/11/03 06:12:40;;;;;;;21.63;13.48;;;;;;;10.04;85.39;93693.66;5111810;28;20555;-76
2023/11/03 06:15:06;;;;;;;21.02;14.77;;;;;;;9.90;85.64;93686.41;5094553;28;20030;-76
2023/11/03 06:17:31;;;;;;;26.23;14.85;;;;;;;10.00;85.45;93679.34;5112294;28;20036;-76
2023/11/03 06:19:57;;;;;;;18.25;11.55;;;;;;;10.12;83.75;93680.75;5105812;28;20061;-75
2023/11/03 06:22:23;;;;;;;20.50;11.70;;;;;;;10.39;83.32;93692.81;5107925;28;20036;-75
2023/11/03 06:24:48;;;;;;;15.30;9.10;;;;;;;10.64;81.79;93678.19;5107185;28;20038;-75
2023/11/03 06:27:13;;;;;;;15.90;9.50;;;;;;;10.61;80.74;93662.88;5108416;28;20444;-76
2023/11/03 06:29:39;;;;;;;17.08;9.55;;;;;;;10.78;80.24;93668.16;5089837;28;20031;-75
2023/11/03 06:32:05;;;;;;;16.55;10.48;;;;;;;10.89;80.59;93693.84;5074867;28;20065;-75
2023/11/03 06:34:31;;;;;;;16.13;10.57;;;;;;;10.89;80.67;93673.06;5107272;28;20036;-76
2023/11/03 06:36:56;;;;;;;15.52;10.68;;;;;;;10.83;80.59;93669.31;5091516;28;20031;-76
2023/11/03 06:39:23;;;;;;;15.38;10.32;;;;;;;11.03;79.48;93664.69;5088556;28;20027;-75
2023/11/03 06:41:48;;;;;;;15.98;11.23;;;;;;;11.00;79.71;93653.78;5106998;28;21951;-75
2023/11/03 06:44:14;;;;;;;14.20;9.18;;;;;;;11.02;78.21;93620.66;5107181;28;20052;-75
2023/11/03 06:46:39;;;;;;;17.15;11.30;;;;;;;11.21;80.09;93656.78;5107917;28;20035;-75
2023/11/03 06:49:07;;;;;;;22.30;11.77;;;;;;;11.24;78.95;93663.44;5105294;28;20489;-75
2023/11/03 06:51:33;;;;;;;16.98;10.68;;;;;;;11.44;78.80;93653.56;5107590;28;20050;-75
2023/11/03 06:53:59;;;;;;;16.52;11.05;;;;;;;11.23;78.85;93641.00;5107583;28;20027;-76
2023/11/03 06:56:25;;;;;;;19.08;11.25;;;;;;;11.37;79.28;93663.81;5106962;28;20038;-75
2023/11/03 06:58:51;;;;;;;17.02;10.70;;;;;;;11.31;78.31;93661.81;5106666;28;20500;-76
2023/11/03 07:01:16;;;;;;;17.55;11.30;;;;;;;11.45;77.51;93661.22;5109292;28;20122;-76
2023/11/03 07:03:42;;;;;;;18.83;11.27;;;;;;;11.49;78.73;93674.72;5108361;28;20067;-76
2023/11/03 07:06:08;;;;;;;15.82;9.48;;;;;;;11.47;78.10;93671.44;5107496;28;20455;-73
2023/11/03 07:08:33;;;;;;;15.98;10.55;;;;;;;11.57;77.53;93670.34;5110495;28;20459;-76
2023/11/03 07:10:58;;;;;;;16.38;11.05;;;;;;;11.57;77.25;93656.53;5111340;28;20096;-76
2023/11/03 07:13:25;;;;;;;16.98;11.00;;;;;;;11.56;78.18;93653.09;5111191;28;20023;-75
2023/11/03 07:15:51;;;;;;;18.02;10.68;;;;;;;11.59;77.47;93647.59;5145586;27;20036;-75
2023/11/03 07:18:16;;;;;;;16.25;10.52;;;;;;;11.82;77.24;93647.75;5110665;28;20408;-76
2023/11/03 07:20:42;;;;;;;20.25;13.30;;;;;;;11.75;76.95;93623.34;5094120;28;20469;-76
2023/11/03 07:23:08;;;;;;;25.63;15.20;;;;;;;11.92;76.38;93612.97;5110987;28;20106;-76
2023/11/03 07:25:33;;;;;;;21.73;12.25;;;;;;;12.19;76.29;93624.81;5093114;28;20492;-76
2023/11/03 07:27:58;;;;;;;18.77;10.98;;;;;;;12.15;74.76;93634.75;5126840;27;20507;-75
2023/11/03 07:30:24;;;;;;;16.17;10.77;;;;;;;12.15;74.69;93600.91;5093336;28;20032;-75
2023/11/03 07:32:49;;;;;;;17.08;9.32;;;;;;;12.27;74.83;93614.38;5110324;28;20019;-74
2023/11/03 07:35:15;;;;;;;15.68;10.23;;;;;;;12.01;75.07;93591.19;5111355;28;20027;-74
2023/11/03 07:37:42;;;;;;;16.10;10.25;;;;;;;12.13;75.76;93620.28;5109677;28;20542;-75
2023/11/03 07:40:07;;;;;;;17.60;10.32;;;;;;;11.96;75.65;93628.09;5093662;28;20031;-75
2023/11/03 07:42:33;;;;;;;14.65;9.90;;;;;;;12.15;75.00;93649.56;5109647;28;20909;-75
2023/11/03 07:44:59;;;;;;;15.15;11.07;;;;;;;11.95;75.30;93628.25;5111135;28;20027;-75
2023/11/03 07:47:25;;;;;;;16.30;11.35;;;;;;;12.27;74.37;93648.22;5108344;28;20421;-75
2023/11/03 07:49:53;;;;;;;40.90;19.42;;;;;;;12.07;74.80;93614.75;5108516;28;20097;-75
2023/11/03 07:52:18;;;;;;;29.45;16.05;;;;;;;12.53;74.36;93646.19;5108254;28;20236;-75
2023/11/03 07:54:43;;;;;;;24.90;15.02;;;;;;;12.54;73.74;93644.44;5108463;28;20042;-75
2023/11/03 07:57:09;;;;;;;15.07;10.10;;;;;;;12.34;74.68;93643.16;5074534;28;20497;-75
2023/11/03 07:59:35;;;;;;;13.73;9.82;;;;;;;12.25;74.55;93630.16;5093243;28;20027;-74
2023/11/03 08:02:01;;;;;;;14.15;8.57;;;;;;;12.08;75.26;93618.97;5093365;28;20027;-74
2023/11/03 08:04:27;;;;;;;23.85;13.93;;;;;;;12.28;75.32;93650.66;5110191;28;20443;-75
2023/11/03 08:06:55;;;;;;;14.55;9.43;;;;;;;12.06;74.70;93635.72;5110291;28;20032;-74
2023/11/03 08:09:20;;;;;;;15.18;10.00;;;;;;;12.12;75.25;93623.84;5075511;28;20028;-74
2023/11/03 08:11:46;;;;;;;17.45;10.55;;;;;;;12.16;74.39;93636.38;5093283;28;20092;-75
2023/11/03 08:14:12;;;;;;;14.45;9.02;;;;;;;12.24;74.04;93638.97;5110077;28;20019;-74
2023/11/03 08:16:44;;;;;;;17.85;11.70;;;;;;;12.06;75.11;93646.13;5111282;28;20464;-75
2023/11/03 08:19:11;;;;;;;15.65;10.00;;;;;;;12.13;74.36;93622.88;5111119;28;20520;-75
2023/11/03 08:21:41;;;;;;;18.13;9.90;;;;;;;12.15;75.14;93628.72;5110159;28;20505;-74
2023/11/03 08:24:10;;;;;;;14.88;9.02;;;;;;;12.22;74.99;93642.69;5111423;28;20044;-74
2023/11/03 08:26:36;;;;;;;17.40;9.93;;;;;;;12.20;74.97;93647.25;5093485;28;20039;-74
2023/11/03 08:29:03;;;;;;;17.13;9.85;;;;;;;12.57;73.70;93653.72;5111128;28;20035;-74
2023/11/03 08:31:29;;;;;;;16.88;10.27;;;;;;;12.26;73.87;93605.75;5076555;28;20047;-74
2023/11/03 08:33:55;;;;;;;13.95;9.38;;;;;;;12.49;74.13;93631.09;5109730;28;20024;-74
2023/11/03 08:36:20;;;;;;;17.42;10.38;;;;;;;12.59;74.63;93639.53;5111135;28;20031;-74
2023/11/03 08:38:47;;;;;;;17.02;10.32;;;;;;;12.52;73.97;93639.38;5111040;28;20485;-74
2023/11/03 08:41:12;;;;;;;16.55;10.70;;;;;;;12.51;74.08;93623.94;5111562;28;20123;-74
2023/11/03 08:43:38;;;;;;;16.67;10.55;;;;;;;12.10;73.68;93594.56;5110918;28;20051;-74
2023/11/03 08:46:03;;;;;;;17.33;11.25;;;;;;;12.40;73.71;93635.50;5111550;28;20101;-75
2023/11/03 08:48:29;;;;;;;16.17;10.25;;;;;;;12.37;74.25;93637.63;5111265;28;20035;-74
2023/11/03 08:50:54;;;;;;;14.40;9.85;;;;;;;12.41;74.59;93620.69;5092917;28;20503;-74
2023/11/03 08:53:23;;;;;;;17.27;10.57;;;;;;;12.51;74.56;93627.34;5109727;28;20023;-74
2023/11/03 08:55:50;;;;;;;15.07;10.13;;;;;;;12.80;73.43;93615.50;5109782;28;20084;-74
2023/11/03 08:58:16;;;;;;;17.92;10.45;;;;;;;12.84;72.05;93624.63;5109621;28;20099;-75
2023/11/03 09:00:45;;;;;;;17.88;9.98;;;;;;;12.59;72.11;93620.47;5109933;28;20470;-74
2023/11/03 09:03:10;;;;;;;16.27;10.50;;;;;;;12.60;73.16;93625.53;5109677;28;20102;-74
2023/11/03 09:05:39;;;;;;;15.05;10.00;;;;;;;12.49;73.53;93623.28;5109816;28;20080;-74
2023/11/03 09:08:05;;;;;;;14.23;9.95;;;;;;;12.74;71.82;93618.78;5109589;28;20424;-74
2023/11/03 09:10:31;;;;;;;15.30;10.80;;;;;;;12.58;72.96;93617.06;5109885;28;20155;-74
2023/11/03 09:12:57;;;;;;;16.25;10.30;;;;;;;12.71;72.46;93617.34;5110752;28;20035;-74
2023/11/03 09:15:23;;;;;;;12.85;9.52;;;;;;;13.03;73.08;93610.34;5095143;28;20031;-74
2023/11/03 09:17:49;;;;;;;16.67;10.27;;;;;;;13.03;73.09;93615.56;5113396;28;20016;-74
2023/11/03 09:20:17;;;;;;;16.00;10.25;;;;;;;12.87;73.65;93613.03;5114748;28;20035;-74
2023/11/03 09:22:43;;;;;;;15.30;9.40;;;;;;;13.02;72.72;93610.53;5096502;28;20027;-74
2023/11/03 09:25:09;;;;;;;15.02;9.55;;;;;;;13.19;72.24;93578.97;5096332;28;20172;-74
2023/11/03 09:27:34;;;;;;;14.52;9.25;;;;;;;13.04;70.02;93546.81;5113170;28;20027;-74
2023/11/03 09:30:00;;;;;;;11.00;7.32;;;;;;;13.16;69.93;93575.91;5113251;28;20028;-74
2023/11/03 09:32:27;;;;;;;11.90;8.55;;;;;;;13.43;70.45;93576.38;5096029;28;20489;-74
2023/11/03 09:34:53;;;;;;;12.32;8.40;;;;;;;13.58;69.54;93561.63;5096366;28;20034;-74
2023/11/03 09:37:19;;;;;;;9.65;5.60;;;;;;;14.30;63.53;93553.28;5114220;28;20031;-74
2023/11/03 09:39:45;;;;;;;10.95;8.15;;;;;;;14.32;66.55;93548.69;5095736;28;20088;-74
2023/11/03 09:42:11;;;;;;;11.50;8.10;;;;;;;14.48;65.17;93518.94;5095892;28;20481;-74
2023/11/03 09:44:37;;;;;;;8.35;6.13;;;;;;;14.67;62.93;93514.97;5114250;28;20491;-74
2023/11/03 09:47:06;;;;;;;10.90;7.60;;;;;;;14.83;64.23;93517.38;5096071;28;20028;-74
2023/11/03 09:49:31;;;;;;;14.95;7.63;;;;;;;14.72;63.39;93508.19;5112779;28;20451;-74
2023/11/03 09:52:04;;;;;;;5.95;4.43;;;;;;;15.10;59.59;93489.69;5112807;28;20031;-74
2023/11/03 09:54:34;;;;;;;10.93;7.28;;;;;;;15.26;61.92;93486.00;5078798;28;20040;-74
2023/11/03 09:57:03;;;;;;;9.05;6.47;;;;;;;15.22;61.30;93495.25;5112742;28;20084;-73
2023/11/03 09:59:35;;;;;;;10.23;6.15;;;;;;;15.24;61.18;93471.50;5113734;28;20486;-74
2023/11/03 10:02:15;;;;;;;7.93;5.68;;;;;;;15.71;56.90;93443.91;5112626;28;20024;-74
2023/11/03 10:04:40;;;;;;;4.93;3.90;;;;;;;15.90;56.85;93455.53;5096611;28;20102;-73
2023/11/03 10:07:06;;;;;;;6.00;3.53;;;;;;;16.14;56.43;93435.91;5111521;28;20499;-74
2023/11/03 10:09:32;;;;;;;11.02;6.20;;;;;;;16.11;58.19;93449.41;5111946;28;20062;-73
2023/11/03 10:12:03;;;;;;;10.43;6.95;;;;;;;16.06;59.12;93463.88;5111495;28;20489;-74
2023/11/03 10:14:29;;;;;;;11.18;8.10;;;;;;;16.05;59.62;93459.66;5094773;28;20036;-74
2023/11/03 10:16:57;;;;;;;10.98;7.53;;;;;;;16.25;58.68;93466.81;5112315;28;20020;-74
2023/11/03 10:19:22;;;;;;;13.68;7.10;;;;;;;16.34;58.78;93470.06;5112084;28;20409;-74
2023/11/03 10:21:47;;;;;;;10.70;8.02;;;;;;;16.25;58.83;93465.00;5113473;28;20024;-73
2023/11/03 10:24:15;;;;;;;10.45;6.85;;;;;;;16.33;57.81;93460.59;5112135;28;20050;-73
2023/11/03 10:26:40;;;;;;;12.65;7.25;;;;;;;16.37;57.54;93435.59;5094091;28;20061;-75
2023/11/03 10:29:06;;;;;;;10.35;6.88;;;;;;;16.59;57.46;93437.09;5112026;28;20027;-76
2023/11/03 10:31:31;;;;;;;8.27;6.20;;;;;;;16.58;57.47;93400.63;5113221;28;20027;-73
2023/11/03 10:33:57;;;;;;;8.82;6.72;;;;;;;16.41;58.22;93408.00;5111733;28;20031;-73
2023/11/03 10:36:23;;;;;;;7.75;5.68;;;;;;;16.58;57.09;93422.38;5094876;28;20031;-73
2023/11/03 10:38:48;;;;;;;11.40;6.72;;;;;;;16.88;53.13;93438.63;5094918;28;20019;-73
2023/11/03 10:41:16;;;;;;;7.25;5.55;;;;;;;16.82;52.93;93430.72;5111759;28;20036;-73
2023/11/03 10:43:41;;;;;;;7.18;4.90;;;;;;;16.86;54.09;93432.78;5094943;28;20056;-73
2023/11/03 10:46:20;;;;;;;9.20;5.30;;;;;;;16.86;54.21;93422.28;5095028;28;20046;-73
2023/11/03 10:48:46;;;;;;;6.72;4.43;;;;;;;16.91;52.59;93406.75;5094759;28;20019;-73
2023/11/03 10:51:22;;;;;;;9.23;5.75;;;;;;;17.04;53.34;93426.94;5111438;28;20031;-73
2023/11/03 10:53:54;;;;;;;9.65;6.80;;;;;;;16.98;53.13;93417.25;5111727;28;20115;-73
2023/11/03 10:56:19;;;;;;;8.38;5.80;;;;;;;16.88;54.37;93401.91;5111374;28;20409;-74
2023/11/03 10:58:44;;;;;;;8.50;5.82;;;;;;;16.90;53.14;93410.38;5094404;28;20019;-73
2023/11/03 11:01:22;;;;;;;7.88;6.30;;;;;;;16.79;54.54;93412.78;5094670;28;20035;-73
2023/11/03 11:03:53;;;;;;;8.55;5.85;;;;;;;16.65;55.05;93423.19;5112609;28;20559;-73
2023/11/03 11:06:25;;;;;;;8.00;6.28;;;;;;;16.61;55.13;93431.69;5112564;28;20028;-73
2023/11/03 11:09:07;;;;;;;7.68;5.85;;;;;;;16.61;55.23;93431.69;5094201;28;20024;-73
2023/11/03 11:11:33;;;;;;;8.07;6.15;;;;;;;16.36;55.67;93411.22;5094219;28;20042;-73
2023/11/03 11:14:21;;;;;;;7.95;5.97;;;;;;;16.36;55.25;93411.22;5094219;28;20520;-73
2023/11/03 11:16:46;;;;;;;6.60;5.10;;;;;;;16.11;55.81;93407.50;5111153;28;20065;-74
2023/11/03 11:19:14;;;;;;;7.75;5.78;;;;;;;15.90;56.33;93403.94;5112186;28;20473;-74